createdAt,value
2018-06-14T00:01:08.215Z,79.00
2018-06-14T00:03:37.308Z,78.30
2018-06-14T00:06:06.642Z,78.30
2018-06-14T00:08:35.569Z,78.30
2018-06-14T00:11:04.493Z,78.30
2018-06-14T00:13:33.371Z,78.30
2018-06-14T00:16:02.223Z,78.30
2018-06-14T00:18:36.689Z,78.60
2018-06-14T00:21:05.463Z,78.30
2018-06-14T00:23:34.233Z,79.20
2018-06-14T00:26:03.039Z,79.20
2018-06-14T00:28:31.949Z,78.80
2018-06-14T00:31:00.850Z,78.40
2018-06-14T00:33:29.836Z,79.00
2018-06-14T00:35:58.619Z,79.50
2018-06-14T00:38:27.556Z,80.00
2018-06-14T00:40:56.281Z,80.20
2018-06-14T00:43:25.072Z,79.80
2018-06-14T00:45:53.911Z,79.60
2018-06-14T00:48:22.750Z,80.30
2018-06-14T00:50:51.601Z,80.20
2018-06-14T00:53:20.461Z,79.70
2018-06-14T00:55:49.254Z,79.90
2018-06-14T00:58:18.067Z,80.10
2018-06-14T01:00:46.867Z,80.10
2018-06-14T01:03:15.624Z,80.70
2018-06-14T01:05:44.421Z,80.90
2018-06-14T01:08:13.415Z,81.50
2018-06-14T01:10:42.560Z,81.40
2018-06-14T01:13:11.568Z,80.90
2018-06-14T01:15:40.593Z,81.70
2018-06-14T01:18:09.458Z,81.20
2018-06-14T01:20:38.344Z,82.10
2018-06-14T01:23:07.130Z,82.10
2018-06-14T01:25:35.972Z,81.90
2018-06-14T01:28:04.801Z,82.40
2018-06-14T01:30:33.763Z,81.60
2018-06-14T01:33:02.989Z,81.90
2018-06-14T01:35:31.888Z,82.00
2018-06-14T01:38:12.006Z,81.60
2018-06-14T01:40:40.781Z,81.00
2018-06-14T01:43:09.638Z,81.70
2018-06-14T01:45:38.461Z,81.40
2018-06-14T01:48:07.868Z,81.80
2018-06-14T01:50:36.707Z,83.30
2018-06-14T01:53:06.510Z,82.70
2018-06-14T01:55:35.638Z,83.00
2018-06-14T01:58:05.065Z,82.50
2018-06-14T02:00:33.946Z,82.80
2018-06-14T02:03:02.823Z,82.90
2018-06-14T02:05:31.613Z,81.80
2018-06-14T02:08:00.541Z,81.90
2018-06-14T02:12:57.872Z,82.00
2018-06-14T02:15:28.405Z,82.10
2018-06-14T02:17:58.384Z,81.80
2018-06-14T02:20:27.201Z,81.00
2018-06-14T02:22:56.103Z,81.10
2018-06-14T02:25:25.215Z,81.20
2018-06-14T02:27:54.093Z,82.10
2018-06-14T02:30:23.377Z,81.40
2018-06-14T02:32:52.188Z,80.50
2018-06-14T02:35:21.259Z,81.20
2018-06-14T02:37:50.527Z,81.40
2018-06-14T02:40:19.367Z,80.80
2018-06-14T02:42:48.164Z,81.30
2018-06-14T02:45:16.958Z,80.90
2018-06-14T02:47:45.780Z,81.70
2018-06-14T02:50:14.627Z,82.60
2018-06-14T02:52:43.703Z,82.20
2018-06-14T02:55:12.593Z,83.50
2018-06-14T02:57:41.539Z,83.90
2018-06-14T03:02:44.747Z,83.80
2018-06-14T03:05:13.628Z,84.30
2018-06-14T03:07:42.439Z,84.70
2018-06-14T03:10:11.250Z,84.20
2018-06-14T03:12:40.098Z,84.90
2018-06-14T03:17:37.503Z,85.10
2018-06-14T03:20:06.351Z,84.30
2018-06-14T03:22:35.135Z,84.20
2018-06-14T03:25:03.973Z,84.80
2018-06-14T03:27:32.851Z,84.60
2018-06-14T03:30:01.751Z,84.40
2018-06-14T03:32:30.682Z,84.90
2018-06-14T03:34:59.437Z,85.30
2018-06-14T03:37:28.238Z,84.90
2018-06-14T03:39:57.110Z,85.50
2018-06-14T03:42:25.965Z,84.70
2018-06-14T03:44:54.924Z,84.70
2018-06-14T03:47:23.898Z,84.90
2018-06-14T03:49:52.610Z,84.70
2018-06-14T03:52:21.323Z,84.40
2018-06-14T03:54:50.266Z,84.20
2018-06-14T03:57:19.059Z,84.10
2018-06-14T03:59:47.955Z,83.80
2018-06-14T04:02:16.952Z,84.20
2018-06-14T04:04:45.809Z,83.80
2018-06-14T04:07:14.743Z,84.50
2018-06-14T04:09:43.861Z,85.10
2018-06-14T04:12:12.751Z,85.10
2018-06-14T04:14:41.551Z,85.10
2018-06-14T04:17:10.511Z,85.70
2018-06-14T04:19:39.697Z,85.90
2018-06-14T04:22:08.523Z,85.70
2018-06-14T04:24:37.385Z,86.50
2018-06-14T04:27:06.345Z,85.50
2018-06-14T04:29:35.369Z,85.80
2018-06-14T04:32:04.204Z,84.80
2018-06-14T04:34:33.013Z,84.80
2018-06-14T04:37:01.861Z,84.30
2018-06-14T04:39:30.742Z,83.10
2018-06-14T04:41:59.569Z,83.80
2018-06-14T04:44:28.557Z,82.30
2018-06-14T04:46:57.444Z,82.40
2018-06-14T04:51:54.552Z,82.10
2018-06-14T04:54:23.929Z,82.40
2018-06-14T04:59:21.253Z,83.20
2018-06-14T05:01:50.095Z,82.90
2018-06-14T05:04:19.159Z,83.10
2018-06-14T05:06:48.286Z,82.00
2018-06-14T05:09:17.212Z,82.60
2018-06-14T05:12:06.608Z,81.60
2018-06-14T05:14:35.621Z,83.40
2018-06-14T05:17:04.567Z,82.10
2018-06-14T05:19:33.454Z,82.60
2018-06-14T05:22:02.360Z,82.50
2018-06-14T05:24:31.248Z,82.60
2018-06-14T05:27:00.230Z,82.40
2018-06-14T05:29:29.080Z,82.10
2018-06-14T05:31:58.099Z,81.60
2018-06-14T05:34:26.935Z,81.80
2018-06-14T05:36:55.714Z,82.70
2018-06-14T05:39:28.733Z,82.40
2018-06-14T05:41:58.091Z,81.70
2018-06-14T05:44:29.329Z,79.50
2018-06-14T05:46:58.221Z,80.20
2018-06-14T05:49:27.038Z,78.60
2018-06-14T05:51:55.845Z,78.00
2018-06-14T05:54:24.917Z,78.30
2018-06-14T05:56:53.609Z,76.30
2018-06-14T05:59:22.368Z,75.60
2018-06-14T06:01:51.184Z,76.40
2018-06-14T06:04:19.939Z,75.90
2018-06-14T06:06:48.692Z,73.90
2018-06-14T06:09:17.471Z,73.30
2018-06-14T06:11:46.226Z,72.10
2018-06-14T06:14:15.398Z,72.80
2018-06-14T06:16:44.562Z,71.40
2018-06-14T06:19:14.482Z,72.80
2018-06-14T06:24:41.237Z,71.40
2018-06-14T06:27:11.546Z,71.00
2018-06-14T06:29:40.380Z,71.70
2018-06-14T06:32:09.229Z,71.30
2018-06-14T06:34:38.058Z,71.70
2018-06-14T06:37:07.038Z,71.60
2018-06-14T06:39:35.854Z,70.40
2018-06-14T06:42:05.173Z,69.10
2018-06-14T06:44:34.435Z,68.30
2018-06-14T06:47:09.101Z,68.30
2018-06-14T06:49:37.996Z,65.20
2018-06-14T06:52:07.175Z,66.20
2018-06-14T06:54:36.092Z,66.70
2018-06-14T06:57:06.259Z,64.50
2018-06-14T06:59:35.175Z,64.40
2018-06-14T07:02:04.009Z,64.60
2018-06-14T07:04:33.007Z,64.60
2018-06-14T07:07:01.837Z,62.30
2018-06-14T07:09:30.571Z,61.70
2018-06-14T07:11:59.390Z,63.00
2018-06-14T07:14:28.285Z,61.30
2018-06-14T07:16:57.187Z,63.50
2018-06-14T07:19:26.136Z,61.00
2018-06-14T07:22:00.904Z,62.80
2018-06-14T07:24:29.659Z,59.60
2018-06-14T07:26:58.581Z,59.00
2018-06-14T07:29:27.380Z,59.50
2018-06-14T07:31:56.222Z,59.20
2018-06-14T07:34:25.108Z,59.80
2018-06-14T07:36:53.948Z,57.50
2018-06-14T07:39:22.808Z,57.00
2018-06-14T07:41:51.932Z,58.20
2018-06-14T07:44:20.830Z,55.60
2018-06-14T07:49:18.902Z,59.20
2018-06-14T07:51:47.620Z,57.20
2018-06-14T07:54:16.493Z,56.90
2018-06-14T07:56:45.262Z,56.60
2018-06-14T07:59:14.161Z,57.80
2018-06-14T08:01:43.267Z,57.80
2018-06-14T08:04:12.090Z,56.00
2018-06-14T08:06:41.658Z,57.00
2018-06-14T08:09:11.480Z,55.80
2018-06-14T08:11:41.104Z,56.60
2018-06-14T08:14:10.346Z,56.80
2018-06-14T08:16:39.591Z,57.20
2018-06-14T08:19:08.773Z,56.80
2018-06-14T08:21:37.578Z,56.20
2018-06-14T08:24:06.462Z,56.30
2018-06-14T08:26:35.274Z,56.60
2018-06-14T08:29:04.183Z,56.60
2018-06-14T08:31:33.343Z,57.40
2018-06-14T08:34:02.411Z,56.60
2018-06-14T08:36:31.222Z,56.90
2018-06-14T08:39:00.110Z,57.70
2018-06-14T08:41:29.063Z,57.60
2018-06-14T08:43:57.896Z,56.50
2018-06-14T08:46:26.819Z,55.90
2018-06-14T08:48:55.788Z,56.80
2018-06-14T08:51:24.616Z,56.30
2018-06-14T08:53:53.484Z,56.80
2018-06-14T08:56:22.354Z,58.00
2018-06-14T08:58:51.273Z,57.40
2018-06-14T09:01:20.011Z,56.90
2018-06-14T09:03:48.829Z,56.20
2018-06-14T09:06:17.686Z,56.30
2018-06-14T09:08:46.806Z,55.00
2018-06-14T09:11:15.593Z,54.30
2018-06-14T09:13:44.442Z,55.10
2018-06-14T09:16:13.480Z,54.90
2018-06-14T09:18:42.320Z,54.70
2018-06-14T09:21:11.228Z,54.10
2018-06-14T09:23:40.096Z,54.30
2018-06-14T09:26:08.910Z,54.90
2018-06-14T09:28:37.686Z,53.40
2018-06-14T09:33:35.130Z,54.30
2018-06-14T09:36:04.100Z,53.90
2018-06-14T09:38:33.098Z,52.60
2018-06-14T09:41:01.958Z,52.10
2018-06-14T09:43:30.847Z,51.30
2018-06-14T09:45:59.681Z,50.50
2018-06-14T09:48:28.452Z,51.10
2018-06-14T09:50:57.344Z,50.30
2018-06-14T09:53:26.154Z,50.00
2018-06-14T09:55:55.154Z,50.60
2018-06-14T09:58:24.034Z,49.70
2018-06-14T10:00:53.071Z,49.60
2018-06-14T10:03:21.844Z,49.70
2018-06-14T10:08:19.066Z,45.60
2018-06-14T10:10:47.910Z,47.90
2018-06-14T10:13:16.750Z,44.50
2018-06-14T10:15:45.649Z,46.80
2018-06-14T10:18:15.740Z,43.90
2018-06-14T10:20:44.679Z,43.40
2018-06-14T10:23:13.508Z,45.40
2018-06-14T10:25:42.291Z,42.90
2018-06-14T10:28:11.230Z,42.10
2018-06-14T10:30:40.096Z,44.30
2018-06-14T10:33:08.820Z,43.90
2018-06-14T10:35:37.739Z,41.80
2018-06-14T10:38:06.608Z,43.00
2018-06-14T10:40:35.618Z,42.30
2018-06-14T10:43:05.834Z,42.10
2018-06-14T10:45:35.046Z,41.10
2018-06-14T10:48:03.984Z,41.80
2018-06-14T10:50:32.786Z,42.00
2018-06-14T10:53:01.511Z,40.80
2018-06-14T10:55:31.034Z,40.10
2018-06-14T10:57:59.977Z,40.80
2018-06-14T11:00:28.970Z,40.00
2018-06-14T11:02:57.747Z,39.80
2018-06-14T11:05:26.639Z,40.10
2018-06-14T11:07:56.089Z,42.20
2018-06-14T11:10:24.977Z,41.30
2018-06-14T11:12:53.771Z,42.50
2018-06-14T11:15:22.654Z,41.90
2018-06-14T11:17:51.495Z,42.50
2018-06-14T11:20:20.374Z,40.90
2018-06-14T11:22:49.268Z,42.10
2018-06-14T11:25:18.207Z,41.70
2018-06-14T11:27:47.135Z,44.30
2018-06-14T11:30:15.956Z,42.40
2018-06-14T11:32:46.050Z,41.50
2018-06-14T11:35:16.779Z,42.10
2018-06-14T11:37:46.003Z,42.00
2018-06-14T11:40:14.919Z,43.80
2018-06-14T11:42:43.739Z,39.40
2018-06-14T11:45:12.647Z,38.10
2018-06-14T11:47:41.575Z,38.40
2018-06-14T11:50:10.422Z,38.10
2018-06-14T11:52:39.151Z,39.10
2018-06-14T11:55:07.993Z,35.70
2018-06-14T11:57:36.772Z,37.30
2018-06-14T12:00:05.969Z,38.00
2018-06-14T12:02:34.893Z,37.30
2018-06-14T12:05:03.835Z,34.50
2018-06-14T12:07:33.235Z,32.80
2018-06-14T12:10:11.043Z,31.80
2018-06-14T12:12:40.503Z,30.50
2018-06-14T12:15:09.837Z,28.00
2018-06-14T12:17:38.724Z,28.90
2018-06-14T12:20:07.585Z,29.70
2018-06-14T12:22:42.281Z,31.80
2018-06-14T12:25:11.046Z,35.70
2018-06-14T12:27:39.882Z,36.10
2018-06-14T12:30:08.746Z,36.40
2018-06-14T12:32:37.769Z,36.00
2018-06-14T12:35:06.678Z,36.10
2018-06-14T12:37:35.549Z,38.40
2018-06-14T12:40:04.447Z,37.40
2018-06-14T12:42:33.602Z,38.90
2018-06-14T12:45:02.466Z,37.40
2018-06-14T12:47:31.255Z,38.70
2018-06-14T12:50:00.265Z,39.30
2018-06-14T12:52:29.041Z,40.50
2018-06-14T12:54:58.109Z,39.90
2018-06-14T12:57:26.953Z,39.10
2018-06-14T12:59:55.958Z,41.00
2018-06-14T13:02:24.871Z,41.40
2018-06-14T13:04:53.777Z,42.20
2018-06-14T13:07:22.629Z,41.70
2018-06-14T13:09:51.467Z,42.00
2018-06-14T13:12:20.364Z,40.50
2018-06-14T13:17:18.061Z,40.70
2018-06-14T13:19:47.089Z,37.60
2018-06-14T13:22:16.331Z,37.90
2018-06-14T13:24:45.479Z,35.70
2018-06-14T13:27:14.877Z,36.90
2018-06-14T13:29:43.814Z,36.90
2018-06-14T13:32:12.900Z,38.10
2018-06-14T13:34:41.817Z,37.80
2018-06-14T13:37:10.721Z,35.50
2018-06-14T13:39:39.657Z,35.60
2018-06-14T13:42:08.548Z,36.00
2018-06-14T13:44:37.343Z,33.50
2018-06-14T13:47:06.325Z,33.50
2018-06-14T13:49:35.302Z,32.50
2018-06-14T13:52:04.706Z,32.40
2018-06-14T13:54:33.633Z,31.90
2018-06-14T13:57:02.457Z,30.80
2018-06-14T14:01:59.680Z,31.80
2018-06-14T14:04:28.453Z,30.30
2018-06-14T14:07:02.589Z,31.30
2018-06-14T14:09:31.409Z,30.40
2018-06-14T14:12:00.462Z,33.10
2018-06-14T14:14:29.622Z,35.10
2018-06-14T14:16:58.823Z,33.70
2018-06-14T14:19:27.675Z,32.60
2018-06-14T14:21:56.532Z,32.10
2018-06-14T14:24:25.577Z,33.70
2018-06-14T14:26:54.515Z,35.30
2018-06-14T14:29:23.337Z,37.30
2018-06-14T14:31:52.597Z,37.20
2018-06-14T14:34:21.946Z,37.70
2018-06-14T14:36:50.837Z,39.20
2018-06-14T14:39:19.734Z,38.00
2018-06-14T14:41:48.588Z,38.00
2018-06-14T14:44:17.497Z,38.10
2018-06-14T14:46:46.477Z,37.00
2018-06-14T14:49:15.479Z,34.70
2018-06-14T14:51:44.357Z,34.70
2018-06-14T14:54:13.591Z,34.30
2018-06-14T14:56:42.729Z,35.10
2018-06-14T14:59:11.511Z,35.60
2018-06-14T15:01:40.579Z,36.50
2018-06-14T15:04:09.495Z,39.30
2018-06-14T15:06:38.488Z,38.50
2018-06-14T15:09:08.947Z,38.30
2018-06-14T15:11:37.797Z,39.00
2018-06-14T15:14:07.025Z,40.90
2018-06-14T15:16:35.938Z,42.10
2018-06-14T15:19:04.742Z,41.70
2018-06-14T15:21:33.618Z,41.70
2018-06-14T15:24:02.581Z,40.10
2018-06-14T15:26:31.856Z,40.00
2018-06-14T15:31:29.354Z,37.10
2018-06-14T15:33:58.149Z,37.10
2018-06-14T15:36:26.940Z,38.70
2018-06-14T15:38:55.797Z,38.00
2018-06-14T15:41:24.645Z,38.00
2018-06-14T15:43:53.703Z,38.20
2018-06-14T15:46:22.413Z,39.00
2018-06-14T15:48:51.241Z,39.40
2018-06-14T15:51:20.523Z,39.90
2018-06-14T15:53:49.601Z,42.00
2018-06-14T15:56:34.846Z,40.30
2018-06-14T15:59:05.946Z,41.80
2018-06-14T16:01:35.609Z,41.30
2018-06-14T16:04:07.157Z,40.70
2018-06-14T16:06:36.673Z,40.80
2018-06-14T16:09:09.629Z,41.10
2018-06-14T16:11:38.685Z,41.60
2018-06-14T16:14:08.008Z,41.20
2018-06-14T16:16:37.557Z,40.30
2018-06-14T16:19:06.394Z,42.90
2018-06-14T16:21:35.684Z,41.60
2018-06-14T16:24:04.696Z,41.50
2018-06-14T16:26:33.702Z,41.60
2018-06-14T16:29:02.627Z,41.60
2018-06-14T16:31:31.546Z,42.70
2018-06-14T16:34:00.861Z,43.20
2018-06-14T16:36:30.082Z,43.60
2018-06-14T16:38:58.908Z,43.30
2018-06-14T16:41:27.723Z,43.30
2018-06-14T16:43:56.592Z,44.30
2018-06-14T16:46:25.458Z,45.10
2018-06-14T16:48:54.528Z,45.00
2018-06-14T16:51:23.404Z,45.20
2018-06-14T16:53:52.306Z,45.60
2018-06-14T16:56:21.200Z,45.90
2018-06-14T16:58:50.150Z,46.60
2018-06-14T17:01:19.058Z,46.50
2018-06-14T17:03:47.784Z,46.50
2018-06-14T17:06:16.801Z,46.30
2018-06-14T17:08:45.757Z,46.60
2018-06-14T17:11:14.777Z,46.90
2018-06-14T17:13:43.953Z,46.30
2018-06-14T17:16:12.764Z,46.60
2018-06-14T17:18:42.188Z,46.80
2018-06-14T17:21:11.010Z,46.20
2018-06-14T17:23:40.063Z,46.30
2018-06-14T17:26:08.955Z,47.40
2018-06-14T17:28:38.088Z,46.20
2018-06-14T17:31:07.151Z,47.10
2018-06-14T17:33:36.137Z,47.20
2018-06-14T17:36:05.183Z,46.60
2018-06-14T17:38:34.084Z,46.70
2018-06-14T17:41:03.155Z,47.00
2018-06-14T17:43:31.865Z,47.00
2018-06-14T17:46:00.847Z,47.30
2018-06-14T17:48:29.696Z,48.40
2018-06-14T17:50:58.944Z,47.40
2018-06-14T17:53:28.551Z,48.00
2018-06-14T17:55:57.497Z,48.30
2018-06-14T17:58:37.036Z,49.50
2018-06-14T18:01:07.085Z,49.60
2018-06-14T18:03:36.470Z,49.90
2018-06-14T18:06:06.019Z,50.90
2018-06-14T18:08:35.162Z,50.40
2018-06-14T18:11:04.544Z,50.70
2018-06-14T18:13:34.183Z,50.40
2018-06-14T18:16:03.131Z,51.40
2018-06-14T18:18:32.086Z,52.60
2018-06-14T18:21:01.376Z,52.30
2018-06-14T18:23:30.352Z,52.80
2018-06-14T18:25:59.154Z,52.80
2018-06-14T18:28:27.949Z,52.70
2018-06-14T18:30:57.173Z,53.00
2018-06-14T18:33:25.894Z,52.60
2018-06-14T18:35:54.835Z,53.10
2018-06-14T18:38:23.738Z,52.80
2018-06-14T18:40:52.536Z,53.30
2018-06-14T18:43:21.407Z,53.90
2018-06-14T18:45:50.265Z,53.80
2018-06-14T18:48:19.197Z,54.40
2018-06-14T18:50:48.091Z,54.80
2018-06-14T18:53:16.981Z,55.00
2018-06-14T18:55:46.258Z,55.00
2018-06-14T18:58:15.508Z,55.60
2018-06-14T19:00:44.664Z,55.90
2018-06-14T19:03:14.168Z,56.40
2018-06-14T19:05:43.884Z,56.50
2018-06-14T19:08:13.016Z,56.20
2018-06-14T19:13:36.034Z,56.90
2018-06-14T19:16:04.969Z,57.40
2018-06-14T19:18:33.745Z,56.70
2018-06-14T19:21:02.641Z,56.70
2018-06-14T19:23:32.254Z,57.10
2018-06-14T19:26:01.048Z,57.40
2018-06-14T19:28:30.808Z,57.60
2018-06-14T19:31:00.000Z,57.00
2018-06-14T19:33:29.186Z,57.70
2018-06-14T19:35:58.360Z,58.20
2018-06-14T19:38:27.083Z,58.40
2018-06-14T19:40:56.025Z,58.40
2018-06-14T19:43:24.964Z,58.80
2018-06-14T19:45:56.152Z,59.00
2018-06-14T19:48:25.733Z,59.30
2018-06-14T19:50:54.756Z,59.40
2018-06-14T19:53:23.550Z,60.40
2018-06-14T19:55:52.586Z,60.40
2018-06-14T19:58:21.738Z,60.30
2018-06-14T20:00:50.874Z,60.50
2018-06-14T20:03:19.748Z,60.70
2018-06-14T20:05:48.624Z,61.30
2018-06-14T20:08:17.746Z,62.00
2018-06-14T20:10:46.721Z,62.50
2018-06-14T20:13:15.636Z,62.60
2018-06-14T20:15:44.540Z,62.60
2018-06-14T20:18:13.728Z,63.40
2018-06-14T20:20:47.374Z,64.00
2018-06-14T20:23:16.274Z,63.90
2018-06-14T20:25:45.170Z,64.40
2018-06-14T20:28:23.574Z,64.50
2018-06-14T20:30:52.712Z,65.50
2018-06-14T20:33:21.546Z,66.80
2018-06-14T20:35:50.560Z,66.40
2018-06-14T20:38:19.286Z,66.30
2018-06-14T20:40:48.123Z,67.10
2018-06-14T20:43:17.036Z,67.00
2018-06-14T20:45:46.094Z,67.60
2018-06-14T20:48:15.921Z,67.90
2018-06-14T20:50:45.380Z,68.60
2018-06-14T20:53:14.214Z,68.30
2018-06-14T20:55:43.700Z,68.10
2018-06-14T20:58:13.208Z,68.50
2018-06-14T21:00:42.121Z,68.40
2018-06-14T21:03:11.021Z,68.70
2018-06-14T21:05:39.780Z,68.80
2018-06-14T21:08:08.541Z,69.60
2018-06-14T21:10:37.416Z,70.00
2018-06-14T21:13:06.418Z,70.30
2018-06-14T21:15:35.536Z,70.30
2018-06-14T21:18:04.420Z,70.80
2018-06-14T21:20:33.364Z,71.10
2018-06-14T21:23:02.416Z,71.20
2018-06-14T21:25:31.318Z,71.40
2018-06-14T21:28:00.088Z,72.60
2018-06-14T21:30:29.086Z,73.10
2018-06-14T21:32:58.268Z,72.70
2018-06-14T21:35:27.138Z,73.30
2018-06-14T21:37:56.000Z,73.40
2018-06-14T21:40:24.908Z,73.80
2018-06-14T21:42:53.718Z,74.00
2018-06-14T21:45:22.545Z,74.10
2018-06-14T21:47:51.372Z,74.60
2018-06-14T21:50:20.322Z,74.60
2018-06-14T21:52:49.183Z,75.10
2018-06-14T21:57:46.281Z,76.10
2018-06-14T22:00:15.215Z,76.60
2018-06-14T22:02:56.336Z,76.90
2018-06-14T22:05:25.303Z,77.60
2018-06-14T22:07:54.296Z,77.60
2018-06-14T22:12:51.559Z,78.00
2018-06-14T22:17:49.039Z,79.10
2018-06-14T22:20:18.158Z,80.00
2018-06-14T22:22:47.008Z,79.60
2018-06-14T22:25:15.914Z,80.00
2018-06-14T22:27:44.766Z,80.30
2018-06-14T22:30:13.644Z,80.70
2018-06-14T22:32:55.565Z,82.00
2018-06-14T22:35:29.543Z,82.20
2018-06-14T22:37:58.585Z,82.60
2018-06-14T22:42:55.997Z,83.00
2018-06-14T22:45:24.968Z,83.10
2018-06-14T22:47:53.957Z,83.60
2018-06-14T22:50:34.237Z,83.70
2018-06-14T22:53:05.833Z,84.10
2018-06-14T22:55:34.798Z,84.80
2018-06-14T22:58:03.850Z,85.00
2018-06-14T23:03:08.710Z,85.60
2018-06-14T23:05:37.574Z,85.60
2018-06-14T23:08:06.702Z,86.00
2018-06-14T23:11:44.350Z,85.90
2018-06-14T23:14:13.160Z,85.90
2018-06-14T23:16:42.250Z,86.60
2018-06-14T23:19:11.082Z,86.90
2018-06-14T23:21:39.954Z,87.30
2018-06-14T23:24:08.827Z,87.50
2018-06-14T23:26:37.725Z,87.60
2018-06-14T23:29:06.844Z,87.70
2018-06-14T23:31:35.680Z,89.70
2018-06-14T23:34:04.485Z,89.10
2018-06-14T23:36:33.320Z,90.00
2018-06-14T23:39:02.186Z,90.20
2018-06-14T23:41:31.038Z,90.10
2018-06-14T23:44:00.096Z,90.00
2018-06-14T23:46:28.961Z,90.20
2018-06-14T23:48:57.884Z,90.20
2018-06-14T23:51:26.700Z,90.30
2018-06-14T23:53:59.397Z,90.30
2018-06-14T23:56:28.146Z,90.10
2018-06-14T23:58:56.919Z,90.10
